Sedgwick Reserve, California Weather observations

Data are for 10 minute period ending at time listed.
 Day   Time   Solar   Ave.   Ave.  Ave.  Vector  Max.   Baro.   Total    
  of    of     Rad.   Air    Rel.  Wind   Wind   Wind  Press.  Precip.   
Year   Day            Temp.  Hum.  Speed  Dir.   Gust                    
2017   (PST)  Kw/m2    F      %     mph   deg.    mph    mb.     in.     
-------------------------------------------------------------------------
  54    9:10   0.52   47.9    41    9.1   360    18.1   978.2    0.00 
  54    9:20   0.55   48.1    40   10.4    10    17.4   978.2    0.00 
  54    9:30   0.57   49.0    40    7.8    13    15.9   978.2    0.00 
  54    9:40   0.60   49.7    39    8.0     3    15.9   978.3    0.00 
  54    9:50   0.62   50.5    38   10.1    15    21.1   978.3    0.00 
  54   10:00   0.65   50.1    38    9.8    21    15.6   978.3    0.00 
  54   10:10   0.67   49.8    38   12.3    21    19.6   978.3    0.00 
  54   10:20   0.68   50.1    37   12.8    21    19.9   978.2    0.00 
  54   10:30   0.70   51.2    36    9.9     5    18.2   978.2    0.00 
  54   10:40   0.72   51.8    36    7.5   358    15.9   978.2    0.00 
  54   10:50   0.73   52.6    36    5.5   342    19.4   978.2    0.00 
  54   11:00   0.74   51.6    36   12.2   306    23.4   978.2    0.00 
  54   11:10   0.74   51.5    37    9.0   314    19.1   978.1    0.00 
  54   11:20   0.75   52.2    37    9.9   309    18.6   977.9    0.00 
  54   11:30   0.75   51.4    35   12.9   297    27.5   977.8    0.00 
  54   11:40   0.73   51.7    36   12.7   316    21.1   977.7    0.00 
  54   11:50   0.76   53.0    37    6.8   325    16.7   977.6    0.00 
  54   12:00   0.77   52.6    37   11.1   309    19.0   977.5    0.00 
  54   12:10   0.77   52.4    37    8.8   316    16.7   977.3    0.00 
  54   12:20   0.76   53.3    36    9.2   353    18.5   977.2    0.00 
  54   12:30   0.76   53.5    36    9.1   327    18.7   977.0    0.00 
  54   12:40   0.75   53.0    34   11.9   320    22.6   976.8    0.00 
  54   12:50   0.74   54.0    36    9.2   309    19.1   976.6    0.00 
  54   13:00   0.73   54.3    36    8.6   325    20.2   976.6    0.00 
  54   13:10   0.72   53.5    34   11.9   318    20.6   976.7    0.00 
  54   13:20   0.71   53.7    35    9.2   320    17.3   976.6    0.00 
  54   13:30   0.69   54.3    34    9.9   329    19.9   976.5    0.00 
  54   13:40   0.67   54.7    34    7.4   314    13.4   976.3    0.00 
  54   13:50   0.65   54.4    32   11.4   334    20.1   976.2    0.00 
  54   14:00   0.63   54.3    33    9.7   319    20.9   976.1    0.00 
  54   14:10   0.61   54.7    32   12.1   309    21.6   976.1    0.00 
  54   14:20   0.58   54.3    31   13.3   313    22.6   976.0    0.00 
  54   14:30   0.56   54.1    32   14.5   307    28.9   976.0    0.00 
  54   14:40   0.53   54.2    33   14.6   310    26.5   975.9    0.00 
  54   14:50   0.51   54.0    33   12.0   318    20.5   975.9    0.00 
  54   15:00   0.47   54.7    33   13.0   312    24.0   975.9    0.00 
  54   15:10   0.45   54.1    32   15.2   310    27.5   975.8    0.00 
  54   15:20   0.41   54.0    32   13.9   314    22.5   975.8    0.00 
  54   15:30   0.38   53.9    33   15.3   310    27.5   975.8    0.00 
  54   15:40   0.34   53.7    41   11.8   301    20.1   975.8    0.00 
  54   15:50   0.31   53.0    47   12.2   292    26.1   975.7    0.00 
  54   16:00   0.27   52.2    52   12.0   289    23.2   975.7    0.00 
  54   16:10   0.24   51.7    54   13.0   298    22.6   975.7    0.00 
  54   16:20   0.21   51.4    54   12.0   287    21.8   975.5    0.00 
  54   16:30   0.17   51.4    54   12.2   289    20.4   975.6    0.00 
  54   16:40   0.14   51.8    53    8.9   300    14.8   975.6    0.00 
  54   16:50   0.11   51.8    49   10.0   294    17.3   975.6    0.00 
  54   17:00   0.08   50.3    58   10.8   286    16.6   975.6    0.00 
  54   17:10   0.06   49.9    59    9.0   307    13.3   975.6    0.00 
  54   17:20   0.03   49.0    62    9.9   292    16.8   975.6    0.00 
  54   17:30   0.02   48.2    64    9.9   296    17.5   975.7    0.00 
  54   17:40   0.01   47.3    66   10.2   294    17.2   975.7    0.00 
  54   17:50   0.01   46.8    67   10.9   294    16.1   975.8    0.00 
  54   18:00   0.00   46.3    68   10.0   298    18.6   976.0    0.00 
  54   18:10   0.00   46.0    68   10.7   300    19.7   976.1    0.00 
  54   18:20   0.00   45.5    69    8.5   307    12.3   976.3    0.00 
  54   18:30   0.00   45.3    68    8.5   295    12.3   976.3    0.00 
  54   18:40   0.00   45.0    67    6.1   285     8.3   976.4    0.00 
  54   18:50   0.00   44.5    68    6.3   285     9.6   976.4    0.00 
  54   19:00   0.00   44.2    68    6.5   292     9.6   976.5    0.00 
  54   19:10   0.00   43.7    65    3.1   308     6.1   976.5    0.00 
  54   19:20   0.00   43.0    61    1.6   348     3.9   976.5    0.00 
  54   19:30   0.00   43.2    55    2.4   341     4.2   976.6    0.00 
  54   19:40   0.00   43.6    54    3.6   347     7.8   976.6    0.00 
  54   19:50   0.00   42.9    55    3.1   344     6.4   976.7    0.00 
  54   20:00   0.00   41.4    61    3.6     2     6.2   976.7    0.00 
  54   20:10   0.00   40.9    61    3.9   355     5.8   976.8    0.00 
  54   20:20   0.00   39.3    66    4.0   357     5.3   976.9    0.00 
  54   20:30   0.00   39.8    64    4.1   354     5.8   976.9    0.00 
  54   20:40   0.00   38.7    67    4.3   352     5.8   977.0    0.00 
  54   20:50   0.00   40.0    63    3.7   340     5.2   976.9    0.00 
  54   21:00   0.00   39.0    66    4.3   348     6.6   976.9    0.00 
  54   21:10   0.00   40.1    62    3.2   339     4.8   976.8    0.00 
  54   21:20   0.00   39.3    65    4.6   339     7.7   976.7    0.00 
  54   21:30   0.00   39.8    63    4.9   346     9.1   976.7    0.00 
  54   21:40   0.00   41.4    59    6.8   335    12.1   976.7    0.00 
  54   21:50   0.00   43.9    53    7.5   335    13.0   976.8    0.00 
  54   22:00   0.00   44.4    52    8.1   324    16.7   976.8    0.00 
  54   22:10   0.00   44.7    50   10.4   320    15.4   977.0    0.00 
  54   22:20   0.00   44.7    49    8.9   312    14.8   977.0    0.00 
  54   22:30   0.00   44.4    49    7.9   315    13.8   977.0    0.00 
  54   22:40   0.00   44.7    46    7.3   325    12.8   977.1    0.00 
  54   22:50   0.00   44.7    45    5.3   320    13.1   977.1    0.00 
  54   23:00   0.00   44.7    44    8.7   317    14.5   977.0    0.00 
  54   23:10   0.00   44.6    43    6.3   329    11.4   977.1    0.00 
  54   23:20   0.00   44.5    43    4.2   342    10.1   977.1    0.00 
  54   23:30   0.00   44.2    43    5.1   337    10.6   977.1    0.00 
  54   23:40   0.00   43.6    45    3.8   344     9.0   977.2    0.00 
  54   23:50   0.00   43.2    44    2.9   344     5.6   977.1    0.00 
  55    0:00   0.00   42.5    47    2.7   345     6.8   977.1    0.00 
  55    0:10   0.00   42.4    47    3.0   342     5.8   977.1    0.00 
  55    0:20   0.00   40.0    53    1.5   349     4.6   977.2    0.00 
  55    0:30   0.00   40.8    50    1.3   250     3.4   977.3    0.00 
  55    0:40   0.00   42.5    46    2.8   277     3.7   977.0    0.00 
  55    0:50   0.00   41.4    51    2.9   299     4.8   976.9    0.00 
  55    1:00   0.00   39.3    56    1.3    13     2.6   977.0    0.00 
  55    1:10   0.00   36.7    62    1.6   304     3.8   977.0    0.00 
  55    1:20   0.00   40.8    51    2.3   281     4.1   977.1    0.00 
  55    1:30   0.00   42.6    48    2.6   281     4.2   977.1    0.00 
  55    1:40   0.00   41.1    52    1.7   332     3.8   977.1    0.00 
  55    1:50   0.00   38.8    58    1.8   340     4.2   977.1    0.00 
  55    2:00   0.00   37.1    64    2.6    96     4.4   977.1    0.00 
  55    2:10   0.00   37.0    64    1.0   349     5.3   976.9    0.00 
  55    2:20   0.00   37.9    60    2.4   331     6.2   976.8    0.00 
  55    2:30   0.00   36.8    64    1.9    29     4.5   976.8    0.00 
  55    2:40   0.00   35.6    67    3.4   344     7.8   976.8    0.00 
  55    2:50   0.00   38.1    60    6.2    15    14.3   976.7    0.00 
  55    3:00   0.00   41.9    52    4.1   343    10.7   976.5    0.00 
  55    3:10   0.00   37.7    64    2.5    96     6.4   976.5    0.00 
  55    3:20   0.00   34.8    74    3.7   140     6.8   976.5    0.00 
  55    3:30   0.00   34.4    76    2.8   130     7.2   976.5    0.00 
  55    3:40   0.00   33.9    78    2.7    86     6.1   976.6    0.00 
  55    3:50   0.00   33.4    79    2.7    57     6.1   976.8    0.00 
  55    4:00   0.00   33.0    80    2.6    86     6.1   976.9    0.00 
  55    4:10   0.00   32.7    81    2.0   112     4.9   976.9    0.00 
  55    4:20   0.00   33.2    80    1.3   125     2.7   977.0    0.00 
  55    4:30   0.00   34.1    78    1.3    86     3.7   977.0    0.00 
  55    4:40   0.00   33.3    80    1.7   292     3.7   976.9    0.00 
  55    4:50   0.00   35.9    71    6.0   353    15.4   976.7    0.00 
  55    5:00   0.00   37.3    64    8.4    19    17.2   976.6    0.00 
  55    5:10   0.00   41.8    52   11.7    25    19.4   976.5    0.00 
  55    5:20   0.00   43.2    49   13.1    24    21.7   976.4    0.00 
  55    5:30   0.00   42.5    51   10.4    37    19.1   976.4    0.00 
  55    5:40   0.00   40.1    58    5.1    54    15.7   976.4    0.00 
  55    5:50   0.00   35.1    72    4.3   127     7.3   976.4    0.00 
  55    6:00   0.00   33.6    78    3.8   165     6.2   976.5    0.00 
  55    6:10   0.00   33.4    78    2.5   157     4.7   976.6    0.00 
  55    6:20   0.00   33.3    79    3.3   141     6.0   976.7    0.00 
  55    6:30   0.00   32.5    82    2.7   118     5.7   976.9    0.00 
  55    6:40   0.01   33.0    82    2.3    80     4.3   977.1    0.00 
  55    6:50   0.01   32.5    83    1.9   206     3.8   977.4    0.00 
  55    7:00   0.05   32.6    82    1.9   240     3.6   977.8    0.00 
  55    7:10   0.11   33.1    83    1.9   355     4.1   978.0    0.00 
  55    7:20   0.16   33.4    82    4.6     2     6.0   978.2    0.00 
  55    7:30   0.21   35.0    79    2.5   354     3.9   978.3    0.00 
  55    7:40   0.25   36.7    75    1.1     4     2.8   978.4    0.00 
  55    7:50   0.26   39.4    69    1.1    39     3.3   978.7    0.00 
  55    8:00   0.19   39.1    68    2.0    22     3.2   978.8    0.00 
  55    8:10   0.31   40.8    65    1.5    35     3.1   979.0    0.00 
  55    8:20   0.39   41.8    61    0.5   199     2.1   979.3    0.00 
  55    8:30   0.42   42.9    60    1.7    90     3.2   979.5    0.00 
  55    8:40   0.43   43.7    59    2.6    67     4.7   979.8    0.00 
  55    8:50   0.45   44.4    60    2.3    82     4.3   979.9    0.00 
  55    9:00   0.47   45.3    57    1.8   154     3.7   979.8    0.00 

Return to Sedgwick Reserve graphs page.


Western Regional Climate Center,wrcc@dri.edu